createdAt,value
2022-08-28T00:00:58.904Z,10.20
2022-08-28T00:03:12.571Z,7.00
2022-08-28T00:05:28.123Z,7.10
2022-08-28T00:07:44.368Z,9.10
2022-08-28T00:10:00.703Z,9.10
2022-08-28T00:12:14.387Z,8.40
2022-08-28T00:14:28.450Z,10.80
2022-08-28T00:16:41.784Z,10.80
2022-08-28T00:18:54.831Z,10.00
2022-08-28T00:21:08.291Z,10.00
2022-08-28T00:23:21.954Z,10.70
2022-08-28T00:25:36.915Z,6.60
2022-08-28T00:27:58.822Z,7.00
2022-08-28T00:30:14.099Z,6.40
2022-08-28T00:32:27.099Z,7.90
2022-08-28T00:34:40.311Z,10.40
2022-08-28T00:36:53.488Z,8.00
2022-08-28T00:39:07.407Z,6.70
2022-08-28T00:41:24.776Z,7.30
2022-08-28T00:43:43.812Z,9.40
2022-08-28T00:45:57.093Z,9.50
2022-08-28T00:48:10.730Z,10.10
2022-08-28T00:50:27.772Z,10.20
2022-08-28T00:52:41.546Z,14.80
2022-08-28T00:54:59.858Z,9.70
2022-08-28T00:57:18.270Z,9.60
2022-08-28T00:59:32.008Z,7.20
2022-08-28T01:01:45.814Z,10.40
2022-08-28T01:03:59.203Z,7.90
2022-08-28T01:06:13.085Z,9.80
2022-08-28T01:08:26.307Z,12.50
2022-08-28T01:10:45.869Z,11.50
2022-08-28T01:13:00.746Z,12.90
2022-08-28T01:15:18.739Z,13.00
2022-08-28T01:17:34.477Z,11.10
2022-08-28T01:19:58.246Z,12.90
2022-08-28T01:22:23.129Z,12.80
2022-08-28T01:24:38.513Z,11.70
2022-08-28T01:26:51.636Z,11.90
2022-08-28T01:29:05.203Z,16.70
2022-08-28T01:31:20.382Z,9.80
2022-08-28T01:33:33.415Z,11.00
2022-08-28T01:35:50.286Z,10.10
2022-08-28T01:38:04.352Z,11.20
2022-08-28T01:40:21.399Z,9.80
2022-08-28T01:42:34.479Z,10.30
2022-08-28T01:44:47.664Z,7.80
2022-08-28T01:47:02.206Z,7.70
2022-08-28T01:49:15.668Z,9.80
2022-08-28T01:51:28.671Z,11.10
2022-08-28T01:53:48.179Z,12.80
2022-08-28T01:56:04.621Z,10.10
2022-08-28T01:58:18.329Z,10.30
2022-08-28T02:00:32.117Z,7.60
2022-08-28T02:02:45.153Z,7.60
2022-08-28T02:04:58.547Z,8.00
2022-08-28T02:07:11.653Z,7.70
2022-08-28T02:09:24.648Z,5.70
2022-08-28T02:11:37.847Z,7.70
2022-08-28T02:13:56.460Z,3.10
2022-08-28T02:16:12.004Z,2.20
2022-08-28T02:18:25.584Z,3.70
2022-08-28T02:20:38.836Z,2.80
2022-08-28T02:22:53.102Z,2.50
2022-08-28T02:25:06.757Z,4.40
2022-08-28T02:27:20.039Z,6.40
2022-08-28T02:29:33.109Z,6.90
2022-08-28T02:31:46.084Z,8.00
2022-08-28T02:33:59.160Z,10.70
2022-08-28T02:36:30.865Z,9.40
2022-08-28T02:38:44.647Z,8.80
2022-08-28T02:40:57.901Z,5.90
2022-08-28T02:43:11.037Z,5.60
2022-08-28T02:45:24.579Z,4.70
2022-08-28T02:47:37.553Z,8.20
2022-08-28T02:49:51.093Z,10.80
2022-08-28T02:52:04.359Z,9.80
2022-08-28T02:54:18.803Z,7.00
2022-08-28T02:56:32.229Z,5.50
2022-08-28T02:58:46.318Z,5.90
2022-08-28T03:00:59.640Z,8.30
2022-08-28T03:03:12.743Z,5.00
2022-08-28T03:05:28.118Z,4.60
2022-08-28T03:07:41.480Z,4.50
2022-08-28T03:09:54.650Z,6.70
2022-08-28T03:12:08.162Z,7.20
2022-08-28T03:14:21.936Z,7.40
2022-08-28T03:16:35.629Z,6.70
2022-08-28T03:18:50.348Z,5.40
2022-08-28T03:21:04.418Z,6.50
2022-08-28T03:23:29.823Z,3.50
2022-08-28T03:25:43.006Z,3.50
2022-08-28T03:27:56.520Z,3.70
2022-08-28T03:30:11.509Z,2.90
2022-08-28T03:32:24.724Z,2.50
2022-08-28T03:34:42.528Z,3.60
2022-08-28T03:36:55.628Z,2.70
2022-08-28T03:39:10.415Z,2.60
2022-08-28T03:41:26.477Z,2.80
2022-08-28T03:43:39.648Z,3.80
2022-08-28T03:46:01.816Z,3.10
2022-08-28T03:48:14.967Z,3.70
2022-08-28T03:50:28.550Z,3.70
2022-08-28T03:52:43.004Z,2.90
2022-08-28T03:54:56.401Z,3.30
2022-08-28T03:57:09.654Z,3.80
2022-08-28T03:59:26.618Z,3.20
2022-08-28T04:01:45.011Z,4.60
2022-08-28T04:03:58.191Z,4.70
2022-08-28T04:06:11.776Z,5.80
2022-08-28T04:08:26.071Z,4.80
2022-08-28T04:10:39.406Z,5.90
2022-08-28T04:12:52.545Z,5.70
2022-08-28T04:15:07.000Z,5.80
2022-08-28T04:17:21.188Z,5.80
2022-08-28T04:19:34.461Z,5.90
2022-08-28T04:21:47.827Z,5.80
2022-08-28T04:24:01.041Z,3.90
2022-08-28T04:26:15.350Z,3.00
2022-08-28T04:28:29.046Z,2.90
2022-08-28T04:30:43.749Z,2.30
2022-08-28T04:32:56.823Z,2.60
2022-08-28T04:35:11.672Z,2.40
2022-08-28T04:37:24.947Z,2.90
2022-08-28T04:39:41.156Z,3.00
2022-08-28T04:41:55.112Z,3.50
2022-08-28T04:44:08.702Z,2.90
2022-08-28T04:46:21.896Z,4.10
2022-08-28T04:48:35.154Z,4.10
2022-08-28T04:50:49.328Z,3.70
2022-08-28T04:53:02.449Z,3.60
2022-08-28T04:55:18.305Z,4.60
2022-08-28T04:57:46.925Z,3.90
2022-08-28T05:00:00.028Z,3.90
2022-08-28T05:02:13.303Z,3.80
2022-08-28T05:04:28.142Z,3.00
2022-08-28T05:06:44.571Z,3.50
2022-08-28T05:08:57.793Z,3.40
2022-08-28T05:11:33.215Z,3.40
2022-08-28T05:13:47.224Z,3.30
2022-08-28T05:16:00.346Z,3.60
2022-08-28T05:18:13.596Z,4.00
2022-08-28T05:20:27.136Z,3.90
2022-08-28T05:22:40.482Z,3.20
2022-08-28T05:24:53.664Z,2.90
2022-08-28T05:27:06.827Z,3.70
2022-08-28T05:29:20.339Z,4.00
2022-08-28T05:31:36.259Z,3.90
2022-08-28T05:33:49.735Z,3.30
2022-08-28T05:36:07.842Z,3.70
2022-08-28T05:38:21.789Z,4.00
2022-08-28T05:40:35.089Z,4.50
2022-08-28T05:42:48.807Z,3.40
2022-08-28T05:45:02.494Z,4.00
2022-08-28T05:47:16.465Z,4.20
2022-08-28T05:49:34.594Z,4.10
2022-08-28T05:51:48.816Z,4.80
2022-08-28T05:54:02.477Z,3.80
2022-08-28T05:56:17.368Z,3.50
2022-08-28T05:58:33.607Z,4.30
2022-08-28T06:00:46.677Z,3.60
2022-08-28T06:03:00.366Z,3.00
2022-08-28T06:05:14.309Z,3.10
2022-08-28T06:07:27.852Z,3.10
2022-08-28T06:09:40.980Z,2.90
2022-08-28T06:11:54.459Z,3.60
2022-08-28T06:14:10.831Z,3.90
2022-08-28T06:16:24.577Z,4.50
2022-08-28T06:18:37.578Z,4.20
2022-08-28T06:20:51.741Z,4.80
2022-08-28T06:23:04.972Z,4.40
2022-08-28T06:25:18.238Z,4.40
2022-08-28T06:27:32.400Z,4.70
2022-08-28T06:29:45.896Z,4.60
2022-08-28T06:32:02.101Z,5.10
2022-08-28T06:34:15.535Z,6.90
2022-08-28T06:36:29.853Z,5.40
2022-08-28T06:38:47.636Z,5.80
2022-08-28T06:41:01.419Z,5.80
2022-08-28T06:43:14.340Z,5.80
2022-08-28T06:45:27.444Z,5.00
2022-08-28T06:47:40.394Z,4.80
2022-08-28T06:49:53.491Z,4.70
2022-08-28T06:52:06.703Z,4.10
2022-08-28T06:54:22.908Z,3.50
2022-08-28T06:56:37.153Z,2.70
2022-08-28T06:58:51.830Z,3.30
2022-08-28T07:01:14.521Z,2.60
2022-08-28T07:03:27.537Z,3.00
2022-08-28T07:05:40.802Z,3.20
2022-08-28T07:07:53.937Z,2.90
2022-08-28T07:10:07.374Z,3.20
2022-08-28T07:12:22.264Z,3.00
2022-08-28T07:14:35.234Z,2.80
2022-08-28T07:16:48.259Z,2.60
2022-08-28T07:19:03.875Z,2.80
2022-08-28T07:21:17.113Z,2.90
2022-08-28T07:23:30.245Z,3.00
2022-08-28T07:25:45.388Z,3.40
2022-08-28T07:27:58.365Z,2.90
2022-08-28T07:30:14.422Z,3.30
2022-08-28T07:32:27.470Z,3.10
2022-08-28T07:34:43.875Z,3.30
2022-08-28T07:36:57.421Z,3.40
2022-08-28T07:39:11.157Z,3.40
2022-08-28T07:41:26.546Z,3.60
2022-08-28T07:43:55.883Z,4.60
2022-08-28T07:46:12.604Z,3.50
2022-08-28T07:48:26.058Z,3.00
2022-08-28T07:50:39.158Z,3.90
2022-08-28T07:52:54.455Z,2.90
2022-08-28T07:55:09.908Z,2.90
2022-08-28T07:57:23.321Z,3.20
2022-08-28T07:59:37.208Z,3.00
2022-08-28T08:01:52.501Z,2.90
2022-08-28T08:04:05.526Z,3.10
2022-08-28T08:06:18.649Z,2.70
2022-08-28T08:08:32.344Z,2.60
2022-08-28T08:10:45.261Z,2.80
2022-08-28T08:12:58.968Z,2.60
2022-08-28T08:15:13.246Z,2.50
2022-08-28T08:17:26.501Z,2.30
2022-08-28T08:19:39.742Z,2.70
2022-08-28T08:21:55.063Z,2.80
2022-08-28T08:24:09.521Z,2.90
2022-08-28T08:26:24.484Z,3.20
2022-08-28T08:28:38.543Z,3.40
2022-08-28T08:30:51.611Z,2.10
2022-08-28T08:33:04.771Z,3.00
2022-08-28T08:35:18.459Z,2.80
2022-08-28T08:37:31.430Z,3.20
2022-08-28T08:39:46.901Z,3.00
2022-08-28T08:42:02.723Z,2.40
2022-08-28T08:44:28.031Z,2.70
2022-08-28T08:46:50.574Z,2.40
2022-08-28T08:49:05.779Z,2.50
2022-08-28T08:51:28.129Z,2.00
2022-08-28T08:53:47.694Z,2.30
2022-08-28T08:56:04.172Z,2.90
2022-08-28T08:58:23.438Z,2.70
2022-08-28T09:00:40.804Z,2.10
2022-08-28T09:03:00.246Z,3.10
2022-08-28T09:05:20.000Z,3.80
2022-08-28T09:07:39.938Z,2.00
2022-08-28T09:09:55.408Z,2.10
2022-08-28T09:12:10.975Z,2.50
2022-08-28T09:14:31.021Z,2.40
2022-08-28T09:16:48.232Z,2.50
2022-08-28T09:19:03.276Z,2.70
2022-08-28T09:21:29.187Z,2.50
2022-08-28T09:23:42.532Z,2.90
2022-08-28T09:26:03.391Z,2.70
2022-08-28T09:28:18.382Z,2.10
2022-08-28T09:30:38.686Z,3.80
2022-08-28T09:33:03.932Z,2.90
2022-08-28T09:35:29.080Z,2.30
2022-08-28T09:37:43.694Z,2.30
2022-08-28T09:40:16.755Z,2.80
2022-08-28T09:42:46.426Z,2.60
2022-08-28T09:45:09.530Z,2.30
2022-08-28T09:47:46.329Z,2.60
2022-08-28T09:50:17.552Z,2.00
2022-08-28T09:52:30.501Z,2.10
2022-08-28T09:54:46.689Z,2.90
2022-08-28T09:57:00.274Z,2.30
2022-08-28T09:59:16.830Z,2.20
2022-08-28T10:01:45.212Z,2.40
2022-08-28T10:04:05.462Z,2.30
2022-08-28T10:06:27.523Z,2.20
2022-08-28T10:08:56.593Z,2.00
2022-08-28T10:11:17.308Z,2.20
2022-08-28T10:13:38.562Z,2.60
2022-08-28T10:16:06.648Z,2.60
2022-08-28T10:18:40.394Z,2.50
2022-08-28T10:21:04.182Z,2.50
2022-08-28T10:23:29.474Z,3.30
2022-08-28T10:25:49.150Z,3.00
2022-08-28T10:28:21.262Z,2.50
2022-08-28T10:30:39.061Z,2.60
2022-08-28T10:33:22.576Z,2.40
2022-08-28T10:35:47.662Z,2.20
2022-08-28T10:38:06.386Z,2.40
2022-08-28T10:40:25.241Z,2.60
2022-08-28T10:42:41.866Z,2.20
2022-08-28T10:44:59.177Z,2.60
2022-08-28T10:47:16.221Z,3.30
2022-08-28T10:49:33.564Z,2.80
2022-08-28T10:51:51.352Z,2.70
2022-08-28T10:54:09.707Z,2.70
2022-08-28T10:56:25.204Z,2.80
2022-08-28T10:58:41.013Z,3.00
2022-08-28T11:00:55.150Z,3.00
2022-08-28T11:03:27.031Z,3.90
2022-08-28T11:05:53.806Z,3.00
2022-08-28T11:08:12.227Z,2.70
2022-08-28T11:10:42.919Z,23.10
2022-08-28T11:12:56.985Z,39.60
2022-08-28T11:15:40.177Z,40.60
2022-08-28T11:17:53.503Z,32.70
2022-08-28T11:20:19.049Z,28.60
2022-08-28T11:22:37.335Z,27.70
2022-08-28T11:25:03.297Z,19.30
2022-08-28T11:27:34.430Z,14.30
2022-08-28T11:30:30.439Z,7.50
2022-08-28T11:33:02.891Z,6.80
2022-08-28T11:35:51.458Z,5.50
2022-08-28T11:38:04.577Z,9.30
2022-08-28T11:40:45.330Z,12.00
2022-08-28T11:43:19.149Z,9.90
2022-08-28T11:46:15.071Z,5.70
2022-08-28T11:48:56.243Z,4.10
2022-08-28T11:51:14.856Z,3.60
2022-08-28T11:53:43.032Z,2.50
2022-08-28T11:56:12.342Z,3.10
2022-08-28T11:58:32.781Z,3.10
2022-08-28T12:01:03.964Z,2.60
2022-08-28T12:03:19.114Z,2.80
2022-08-28T12:05:58.562Z,3.10
2022-08-28T12:08:12.639Z,2.80
2022-08-28T12:11:01.394Z,2.40
2022-08-28T12:13:34.953Z,3.60
2022-08-28T12:16:05.530Z,3.20
2022-08-28T12:19:00.517Z,3.00
2022-08-28T12:21:21.355Z,2.80
2022-08-28T12:23:44.530Z,3.00
2022-08-28T12:26:06.425Z,2.80
2022-08-28T12:28:26.281Z,3.20
2022-08-28T12:30:48.197Z,2.60
2022-08-28T12:33:06.784Z,3.10
2022-08-28T12:35:26.037Z,3.00
2022-08-28T12:37:52.016Z,3.10
2022-08-28T12:40:11.614Z,3.00
2022-08-28T12:42:27.662Z,3.70
2022-08-28T12:44:40.687Z,2.60
2022-08-28T12:46:53.834Z,3.60
2022-08-28T12:49:09.074Z,2.70
2022-08-28T12:51:26.734Z,2.70
2022-08-28T12:53:48.137Z,3.20
2022-08-28T12:56:01.064Z,3.20
2022-08-28T12:58:31.008Z,3.20
2022-08-28T13:00:56.939Z,3.10
2022-08-28T13:03:10.661Z,2.40
2022-08-28T13:05:37.031Z,3.80
2022-08-28T13:07:54.246Z,2.90
2022-08-28T13:10:10.395Z,3.30
2022-08-28T13:12:55.381Z,2.60
2022-08-28T13:15:03.330Z,2.70
2022-08-28T13:17:18.657Z,3.10
2022-08-28T13:19:35.932Z,2.70
2022-08-28T13:22:02.924Z,2.20
2022-08-28T13:24:44.723Z,2.60
2022-08-28T13:27:08.648Z,3.20
2022-08-28T13:29:27.071Z,2.60
2022-08-28T13:31:41.761Z,3.80
2022-08-28T13:34:12.431Z,3.90
2022-08-28T13:36:29.532Z,3.10
2022-08-28T13:38:42.526Z,3.80
2022-08-28T13:40:59.123Z,2.90
2022-08-28T13:43:14.818Z,3.40
2022-08-28T13:45:29.757Z,3.10
2022-08-28T13:47:55.277Z,3.60
2022-08-28T13:50:08.849Z,3.10
2022-08-28T13:52:22.161Z,3.20
2022-08-28T13:54:35.382Z,3.20
2022-08-28T13:56:48.557Z,3.70
2022-08-28T13:59:01.442Z,3.60
2022-08-28T14:01:15.137Z,3.80
2022-08-28T14:03:42.372Z,3.60
2022-08-28T14:05:55.531Z,3.80
2022-08-28T14:08:08.966Z,4.00
2022-08-28T14:10:22.763Z,3.20
2022-08-28T14:12:36.380Z,2.80
2022-08-28T14:14:50.029Z,3.10
2022-08-28T14:17:03.635Z,3.20
2022-08-28T14:19:16.840Z,3.90
2022-08-28T14:21:29.854Z,3.90
2022-08-28T14:23:43.016Z,3.30
2022-08-28T14:25:56.439Z,3.60
2022-08-28T14:28:09.569Z,6.00
2022-08-28T14:30:23.715Z,8.60
2022-08-28T14:32:37.020Z,9.10
2022-08-28T14:34:51.826Z,6.10
2022-08-28T14:37:04.843Z,4.30
2022-08-28T14:39:19.085Z,11.50
2022-08-28T14:41:32.682Z,13.20
2022-08-28T14:43:45.791Z,8.40
2022-08-28T14:45:59.089Z,5.10
2022-08-28T14:48:12.202Z,4.10
2022-08-28T14:50:25.327Z,2.90
2022-08-28T14:52:41.757Z,3.70
2022-08-28T14:54:54.747Z,3.30
2022-08-28T14:57:07.914Z,3.20
2022-08-28T14:59:24.472Z,4.80
2022-08-28T15:01:41.067Z,2.30
2022-08-28T15:03:54.314Z,4.30
2022-08-28T15:06:12.255Z,2.70
2022-08-28T15:08:25.240Z,2.60
2022-08-28T15:10:38.208Z,2.90
2022-08-28T15:12:51.230Z,2.60
2022-08-28T15:15:05.480Z,2.60
2022-08-28T15:17:18.515Z,3.60
2022-08-28T15:19:31.471Z,2.80
2022-08-28T15:21:47.731Z,2.90
2022-08-28T15:24:02.508Z,2.90
2022-08-28T15:26:15.818Z,3.70
2022-08-28T15:28:29.111Z,2.80
2022-08-28T15:30:42.996Z,2.20
2022-08-28T15:32:56.014Z,3.00
2022-08-28T15:35:10.298Z,2.60
2022-08-28T15:37:23.367Z,3.60
2022-08-28T15:39:52.675Z,3.40
2022-08-28T15:42:06.710Z,2.50
2022-08-28T15:44:19.780Z,2.50
2022-08-28T15:46:34.889Z,2.50
2022-08-28T15:48:49.369Z,2.60
2022-08-28T15:51:02.436Z,2.80
2022-08-28T15:53:17.769Z,2.40
2022-08-28T15:55:31.443Z,3.30
2022-08-28T15:57:44.500Z,3.20
2022-08-28T15:59:57.567Z,2.50
2022-08-28T16:02:10.850Z,2.20
2022-08-28T16:04:23.885Z,2.20
2022-08-28T16:06:37.867Z,2.30
2022-08-28T16:08:51.183Z,2.90
2022-08-28T16:11:04.321Z,2.20
2022-08-28T16:13:17.276Z,2.30
2022-08-28T16:15:30.581Z,1.70
2022-08-28T16:17:43.592Z,2.00
2022-08-28T16:19:56.726Z,2.10
2022-08-28T16:22:09.950Z,2.00
2022-08-28T16:24:22.862Z,2.20
2022-08-28T16:26:36.093Z,2.40
2022-08-28T16:28:49.402Z,1.80
2022-08-28T16:31:02.556Z,1.60
2022-08-28T16:33:23.285Z,1.90
2022-08-28T16:35:37.055Z,1.50
2022-08-28T16:37:50.253Z,1.50
2022-08-28T16:40:04.701Z,1.90
2022-08-28T16:42:18.465Z,1.50
2022-08-28T16:44:31.805Z,1.10
2022-08-28T16:46:45.401Z,1.50
2022-08-28T16:48:59.110Z,1.40
2022-08-28T16:51:12.590Z,1.40
2022-08-28T16:53:27.121Z,1.20
2022-08-28T16:55:41.697Z,1.70
2022-08-28T16:57:55.019Z,1.40
2022-08-28T17:00:09.195Z,1.90
2022-08-28T17:02:26.651Z,1.60
2022-08-28T17:04:39.810Z,1.60
2022-08-28T17:06:53.450Z,1.40
2022-08-28T17:09:09.122Z,2.50
2022-08-28T17:11:22.932Z,2.10
2022-08-28T17:13:35.881Z,4.10
2022-08-28T17:15:49.110Z,3.20
2022-08-28T17:18:02.444Z,4.20
2022-08-28T17:20:30.222Z,2.80
2022-08-28T17:22:43.224Z,1.60
2022-08-28T17:24:56.257Z,1.40
2022-08-28T17:27:09.615Z,1.60
2022-08-28T17:29:22.691Z,4.20
2022-08-28T17:31:35.924Z,4.80
2022-08-28T17:33:50.264Z,5.30
2022-08-28T17:36:03.828Z,4.10
2022-08-28T17:38:16.770Z,5.70
2022-08-28T17:40:30.123Z,6.80
2022-08-28T17:42:43.294Z,5.90
2022-08-28T17:44:56.538Z,5.60
2022-08-28T17:47:09.945Z,7.70
2022-08-28T17:49:23.622Z,6.20
2022-08-28T17:51:42.388Z,4.80
2022-08-28T17:53:57.042Z,7.60
2022-08-28T17:56:12.670Z,7.30
2022-08-28T17:58:25.706Z,6.40
2022-08-28T18:00:38.873Z,4.40
2022-08-28T18:02:53.205Z,4.70
2022-08-28T18:05:07.095Z,5.40
2022-08-28T18:07:20.219Z,5.10
2022-08-28T18:09:36.969Z,4.90
2022-08-28T18:11:50.430Z,5.10
2022-08-28T18:14:03.429Z,6.10
2022-08-28T18:16:16.501Z,5.90
2022-08-28T18:18:36.334Z,5.20
2022-08-28T18:20:49.765Z,3.90
2022-08-28T18:23:03.559Z,6.10
2022-08-28T18:25:30.768Z,6.20
2022-08-28T18:27:43.785Z,3.90
2022-08-28T18:29:56.745Z,3.40
2022-08-28T18:32:10.928Z,4.90
2022-08-28T18:34:24.100Z,3.90
2022-08-28T18:36:42.691Z,3.50
2022-08-28T18:38:56.935Z,4.60
2022-08-28T18:41:12.062Z,3.00
2022-08-28T18:43:25.216Z,3.90
2022-08-28T18:45:38.541Z,3.20
2022-08-28T18:47:51.717Z,4.40
2022-08-28T18:50:05.172Z,4.40
2022-08-28T18:52:18.806Z,4.20
2022-08-28T18:54:32.440Z,3.90
2022-08-28T18:56:49.101Z,5.40
2022-08-28T18:59:03.468Z,3.80
2022-08-28T19:01:16.953Z,5.00
2022-08-28T19:03:30.093Z,3.60
2022-08-28T19:05:43.949Z,2.90
2022-08-28T19:07:57.096Z,5.40
2022-08-28T19:10:32.145Z,2.60
2022-08-28T19:12:46.922Z,2.70
2022-08-28T19:15:01.482Z,3.90
2022-08-28T19:17:19.038Z,5.20
2022-08-28T19:19:34.962Z,4.00
2022-08-28T19:21:47.929Z,4.40
2022-08-28T19:24:00.874Z,4.50
2022-08-28T19:26:14.237Z,3.20
2022-08-28T19:28:27.170Z,2.90
2022-08-28T19:30:40.660Z,3.00
2022-08-28T19:32:54.035Z,5.60
2022-08-28T19:35:07.262Z,4.70
2022-08-28T19:37:20.332Z,4.10
2022-08-28T19:39:33.714Z,2.80
2022-08-28T19:41:47.355Z,3.90
2022-08-28T19:44:00.425Z,3.40
2022-08-28T19:46:19.809Z,4.20
2022-08-28T19:48:33.976Z,4.00
2022-08-28T19:50:47.236Z,3.70
2022-08-28T19:53:00.216Z,2.90
2022-08-28T19:55:18.832Z,3.50
2022-08-28T19:57:31.866Z,3.20
2022-08-28T19:59:45.029Z,4.90
2022-08-28T20:01:58.110Z,4.00
2022-08-28T20:04:14.498Z,4.20
2022-08-28T20:06:27.574Z,3.90
2022-08-28T20:08:40.878Z,4.00
2022-08-28T20:10:55.098Z,3.50
2022-08-28T20:13:08.119Z,3.70
2022-08-28T20:15:22.092Z,4.60
2022-08-28T20:17:35.411Z,3.90
2022-08-28T20:19:59.693Z,4.90
2022-08-28T20:22:15.992Z,5.80
2022-08-28T20:24:29.302Z,4.70
2022-08-28T20:26:42.741Z,4.20
2022-08-28T20:28:56.333Z,3.90
2022-08-28T20:31:13.623Z,4.90
2022-08-28T20:33:26.766Z,4.20
2022-08-28T20:35:40.119Z,3.40
2022-08-28T20:37:53.216Z,4.40
2022-08-28T20:40:09.931Z,3.70
2022-08-28T20:42:23.069Z,3.50
2022-08-28T20:44:36.090Z,4.10
2022-08-28T20:46:51.464Z,3.70
2022-08-28T20:49:07.028Z,3.50
2022-08-28T20:51:40.146Z,2.60
2022-08-28T20:53:55.763Z,3.40
2022-08-28T20:56:11.114Z,3.80
2022-08-28T20:58:24.202Z,2.50
2022-08-28T21:00:37.227Z,3.60
2022-08-28T21:02:50.259Z,2.70
2022-08-28T21:05:04.305Z,3.60
2022-08-28T21:07:18.754Z,2.90
2022-08-28T21:09:35.865Z,3.40
2022-08-28T21:12:04.913Z,3.10
2022-08-28T21:14:18.003Z,3.00
2022-08-28T21:16:31.424Z,3.00
2022-08-28T21:18:59.277Z,2.90
2022-08-28T21:21:17.760Z,2.80
2022-08-28T21:23:33.413Z,2.90
2022-08-28T21:25:48.383Z,1.90
2022-08-28T21:28:04.202Z,2.90
2022-08-28T21:30:20.237Z,2.80
2022-08-28T21:32:35.305Z,4.50
2022-08-28T21:34:48.291Z,4.60
2022-08-28T21:37:01.678Z,4.00
2022-08-28T21:39:14.815Z,3.50
2022-08-28T21:41:27.990Z,3.30
2022-08-28T21:43:41.417Z,3.80
2022-08-28T21:46:03.738Z,3.30
2022-08-28T21:48:16.778Z,3.30
2022-08-28T21:50:30.627Z,3.00
2022-08-28T21:52:44.430Z,3.90
2022-08-28T21:55:03.178Z,3.80
2022-08-28T21:57:16.190Z,3.10
2022-08-28T21:59:32.572Z,3.50
2022-08-28T22:01:51.241Z,3.10
2022-08-28T22:04:04.212Z,2.80
2022-08-28T22:06:19.582Z,3.90
2022-08-28T22:08:33.062Z,3.40
2022-08-28T22:10:47.171Z,4.00
2022-08-28T22:13:00.383Z,3.20
2022-08-28T22:15:14.213Z,4.50
2022-08-28T22:17:27.687Z,4.40
2022-08-28T22:19:40.767Z,2.80
2022-08-28T22:22:10.200Z,2.90
2022-08-28T22:24:23.374Z,4.30
2022-08-28T22:26:36.487Z,3.00
2022-08-28T22:28:50.026Z,4.00
2022-08-28T22:31:03.206Z,2.60
2022-08-28T22:33:19.316Z,3.80
2022-08-28T22:35:32.789Z,3.90
2022-08-28T22:37:45.850Z,3.10
2022-08-28T22:39:59.344Z,2.40
2022-08-28T22:42:13.165Z,3.00
2022-08-28T22:44:26.184Z,3.80
2022-08-28T22:46:39.292Z,2.50
2022-08-28T22:48:52.383Z,3.10
2022-08-28T22:51:10.963Z,2.30
2022-08-28T22:53:24.447Z,3.00
2022-08-28T22:55:41.372Z,3.00
2022-08-28T22:57:56.424Z,3.50
2022-08-28T23:00:12.124Z,3.40
2022-08-28T23:02:27.159Z,3.60
2022-08-28T23:04:40.469Z,3.90
2022-08-28T23:06:53.446Z,3.30
2022-08-28T23:09:06.976Z,2.90
2022-08-28T23:11:20.169Z,2.80
2022-08-28T23:13:34.022Z,4.00
2022-08-28T23:15:47.472Z,2.90
2022-08-28T23:18:00.512Z,2.30
2022-08-28T23:20:18.478Z,4.80
2022-08-28T23:22:31.595Z,3.30
2022-08-28T23:24:44.954Z,3.40
2022-08-28T23:27:09.316Z,3.20
2022-08-28T23:29:30.856Z,2.60
2022-08-28T23:31:44.725Z,3.50
2022-08-28T23:33:58.137Z,2.20
2022-08-28T23:36:13.327Z,3.30
2022-08-28T23:38:26.478Z,1.90
2022-08-28T23:40:40.599Z,2.10
2022-08-28T23:42:54.496Z,3.70
2022-08-28T23:45:08.129Z,3.00
2022-08-28T23:47:21.197Z,2.70
2022-08-28T23:49:34.267Z,2.60
2022-08-28T23:51:55.693Z,3.40
2022-08-28T23:54:08.993Z,3.60
2022-08-28T23:56:22.092Z,3.70
2022-08-28T23:58:43.091Z,3.20
